sensor_id;sensor_type;location;lat;lon;timestamp;P1;durP1;ratioP1;P2;durP2;ratioP2
43226;SDS011;28839;52.404;9.808;2023-04-06T00:03:46;28.70;;;19.20;;
43226;SDS011;28839;52.404;9.808;2023-04-06T00:10:42;28.60;;;17.55;;
43226;SDS011;28839;52.404;9.808;2023-04-06T00:17:36;26.58;;;17.92;;
43226;SDS011;28839;52.404;9.808;2023-04-06T00:24:30;30.98;;;17.52;;
43226;SDS011;28839;52.404;9.808;2023-04-06T00:31:25;25.67;;;16.80;;
43226;SDS011;28839;52.404;9.808;2023-04-06T00:38:19;23.27;;;16.83;;
43226;SDS011;28839;52.404;9.808;2023-04-06T00:45:13;22.50;;;17.00;;
43226;SDS011;28839;52.404;9.808;2023-04-06T00:52:08;25.12;;;17.42;;
43226;SDS011;28839;52.404;9.808;2023-04-06T00:59:02;22.87;;;16.70;;
43226;SDS011;28839;52.404;9.808;2023-04-06T01:05:56;24.05;;;16.52;;
43226;SDS011;28839;52.404;9.808;2023-04-06T01:12:52;24.93;;;16.87;;
43226;SDS011;28839;52.404;9.808;2023-04-06T01:19:46;23.70;;;16.92;;
43226;SDS011;28839;52.404;9.808;2023-04-06T01:26:42;22.40;;;16.80;;
43226;SDS011;28839;52.404;9.808;2023-04-06T01:33:37;23.17;;;16.27;;
43226;SDS011;28839;52.404;9.808;2023-04-06T01:40:31;25.37;;;18.00;;
43226;SDS011;28839;52.404;9.808;2023-04-06T01:47:26;23.20;;;16.37;;
43226;SDS011;28839;52.404;9.808;2023-04-06T01:54:20;27.58;;;16.77;;
43226;SDS011;28839;52.404;9.808;2023-04-06T02:01:14;20.12;;;17.52;;
43226;SDS011;28839;52.404;9.808;2023-04-06T02:08:09;24.42;;;17.62;;
43226;SDS011;28839;52.404;9.808;2023-04-06T02:15:03;24.92;;;17.58;;
43226;SDS011;28839;52.404;9.808;2023-04-06T02:21:57;24.02;;;16.95;;
43226;SDS011;28839;52.404;9.808;2023-04-06T02:28:53;22.93;;;17.00;;
43226;SDS011;28839;52.404;9.808;2023-04-06T02:35:47;21.40;;;16.75;;
43226;SDS011;28839;52.404;9.808;2023-04-06T02:42:41;24.58;;;17.40;;
43226;SDS011;28839;52.404;9.808;2023-04-06T02:49:36;23.20;;;17.12;;
43226;SDS011;28839;52.404;9.808;2023-04-06T02:56:30;26.65;;;17.58;;
43226;SDS011;28839;52.404;9.808;2023-04-06T03:03:24;24.37;;;17.12;;
43226;SDS011;28839;52.404;9.808;2023-04-06T03:10:20;25.92;;;17.08;;
43226;SDS011;28839;52.404;9.808;2023-04-06T03:17:13;26.95;;;17.35;;
43226;SDS011;28839;52.404;9.808;2023-04-06T03:24:07;27.25;;;17.50;;
43226;SDS011;28839;52.404;9.808;2023-04-06T03:31:03;25.77;;;16.23;;
43226;SDS011;28839;52.404;9.808;2023-04-06T03:37:57;27.35;;;17.25;;
43226;SDS011;28839;52.404;9.808;2023-04-06T03:44:51;23.92;;;16.37;;
43226;SDS011;28839;52.404;9.808;2023-04-06T03:51:46;25.42;;;17.73;;
43226;SDS011;28839;52.404;9.808;2023-04-06T03:58:40;24.65;;;15.27;;
43226;SDS011;28839;52.404;9.808;2023-04-06T04:05:36;21.98;;;14.95;;
43226;SDS011;28839;52.404;9.808;2023-04-06T04:12:31;26.23;;;14.85;;
43226;SDS011;28839;52.404;9.808;2023-04-06T04:19:25;26.92;;;14.98;;
43226;SDS011;28839;52.404;9.808;2023-04-06T04:26:19;21.87;;;13.25;;
43226;SDS011;28839;52.404;9.808;2023-04-06T04:33:15;19.45;;;12.48;;
43226;SDS011;28839;52.404;9.808;2023-04-06T04:40:09;19.42;;;12.37;;
43226;SDS011;28839;52.404;9.808;2023-04-06T04:53:59;22.70;;;12.40;;
43226;SDS011;28839;52.404;9.808;2023-04-06T05:00:52;23.67;;;13.02;;
43226;SDS011;28839;52.404;9.808;2023-04-06T05:07:46;28.95;;;13.15;;
43226;SDS011;28839;52.404;9.808;2023-04-06T05:14:42;22.80;;;12.85;;
43226;SDS011;28839;52.404;9.808;2023-04-06T05:21:36;22.90;;;11.70;;
43226;SDS011;28839;52.404;9.808;2023-04-06T05:28:30;25.58;;;11.15;;
43226;SDS011;28839;52.404;9.808;2023-04-06T05:35:25;18.40;;;10.50;;
43226;SDS011;28839;52.404;9.808;2023-04-06T05:42:19;15.73;;;10.30;;
43226;SDS011;28839;52.404;9.808;2023-04-06T05:49:13;20.98;;;10.95;;
43226;SDS011;28839;52.404;9.808;2023-04-06T05:56:08;21.30;;;9.50;;
43226;SDS011;28839;52.404;9.808;2023-04-06T06:03:02;14.73;;;8.57;;
43226;SDS011;28839;52.404;9.808;2023-04-06T06:09:58;16.23;;;8.75;;
43226;SDS011;28839;52.404;9.808;2023-04-06T06:16:53;14.98;;;7.78;;
43226;SDS011;28839;52.404;9.808;2023-04-06T06:23:47;17.95;;;7.65;;
43226;SDS011;28839;52.404;9.808;2023-04-06T06:30:42;16.08;;;8.57;;
43226;SDS011;28839;52.404;9.808;2023-04-06T06:37:37;17.12;;;7.30;;
43226;SDS011;28839;52.404;9.808;2023-04-06T06:44:31;10.90;;;7.45;;
43226;SDS011;28839;52.404;9.808;2023-04-06T06:51:25;13.62;;;6.65;;
43226;SDS011;28839;52.404;9.808;2023-04-06T06:58:20;14.63;;;6.95;;
43226;SDS011;28839;52.404;9.808;2023-04-06T07:05:14;8.68;;;6.43;;
43226;SDS011;28839;52.404;9.808;2023-04-06T07:12:08;10.47;;;6.33;;
43226;SDS011;28839;52.404;9.808;2023-04-06T07:19:04;9.98;;;6.30;;
43226;SDS011;28839;52.404;9.808;2023-04-06T07:25:58;10.68;;;6.15;;
43226;SDS011;28839;52.404;9.808;2023-04-06T07:32:52;8.32;;;6.37;;
43226;SDS011;28839;52.404;9.808;2023-04-06T07:39:48;8.13;;;6.87;;
43226;SDS011;28839;52.404;9.808;2023-04-06T07:46:42;8.23;;;6.20;;
43226;SDS011;28839;52.404;9.808;2023-04-06T07:53:36;8.23;;;6.28;;
43226;SDS011;28839;52.404;9.808;2023-04-06T08:00:31;10.27;;;6.97;;
43226;SDS011;28839;52.404;9.808;2023-04-06T08:07:25;9.95;;;7.12;;
43226;SDS011;28839;52.404;9.808;2023-04-06T08:14:19;6.55;;;5.82;;
43226;SDS011;28839;52.404;9.808;2023-04-06T08:21:15;10.25;;;7.03;;
43226;SDS011;28839;52.404;9.808;2023-04-06T08:28:09;10.77;;;6.70;;
43226;SDS011;28839;52.404;9.808;2023-04-06T08:35:03;7.80;;;6.15;;
43226;SDS011;28839;52.404;9.808;2023-04-06T08:41:59;10.65;;;6.57;;
43226;SDS011;28839;52.404;9.808;2023-04-06T08:48:55;16.55;;;6.78;;
43226;SDS011;28839;52.404;9.808;2023-04-06T08:55:49;11.10;;;6.97;;
43226;SDS011;28839;52.404;9.808;2023-04-06T09:02:45;10.95;;;6.53;;
43226;SDS011;28839;52.404;9.808;2023-04-06T09:09:40;12.80;;;7.47;;
43226;SDS011;28839;52.404;9.808;2023-04-06T09:16:39;10.15;;;7.12;;
43226;SDS011;28839;52.404;9.808;2023-04-06T09:23:35;9.02;;;6.85;;
43226;SDS011;28839;52.404;9.808;2023-04-06T09:30:30;9.73;;;7.43;;
43226;SDS011;28839;52.404;9.808;2023-04-06T09:37:24;9.15;;;7.10;;
43226;SDS011;28839;52.404;9.808;2023-04-06T09:44:22;8.73;;;7.00;;
43226;SDS011;28839;52.404;9.808;2023-04-06T09:51:18;12.55;;;7.35;;
43226;SDS011;28839;52.404;9.808;2023-04-06T10:05:15;13.27;;;7.85;;
43226;SDS011;28839;52.404;9.808;2023-04-06T10:12:14;11.25;;;7.57;;
43226;SDS011;28839;52.404;9.808;2023-04-06T10:19:10;10.68;;;6.60;;
43226;SDS011;28839;52.404;9.808;2023-04-06T10:26:12;9.70;;;7.40;;
43226;SDS011;28839;52.404;9.808;2023-04-06T10:33:14;11.05;;;7.25;;
43226;SDS011;28839;52.404;9.808;2023-04-06T10:40:17;9.80;;;7.15;;
43226;SDS011;28839;52.404;9.808;2023-04-06T10:47:17;9.75;;;6.75;;
43226;SDS011;28839;52.404;9.808;2023-04-06T10:54:11;10.43;;;7.72;;
43226;SDS011;28839;52.404;9.808;2023-04-06T11:01:05;10.97;;;7.70;;
43226;SDS011;28839;52.404;9.808;2023-04-06T11:08:01;9.53;;;7.10;;
43226;SDS011;28839;52.404;9.808;2023-04-06T11:14:55;11.70;;;7.60;;
43226;SDS011;28839;52.404;9.808;2023-04-06T11:21:54;11.20;;;8.07;;
43226;SDS011;28839;52.404;9.808;2023-04-06T11:28:49;9.07;;;7.23;;
43226;SDS011;28839;52.404;9.808;2023-04-06T11:35:43;9.88;;;6.72;;
43226;SDS011;28839;52.404;9.808;2023-04-06T11:42:38;11.95;;;9.30;;
43226;SDS011;28839;52.404;9.808;2023-04-06T11:49:34;9.90;;;7.90;;
43226;SDS011;28839;52.404;9.808;2023-04-06T11:56:30;13.00;;;9.30;;
43226;SDS011;28839;52.404;9.808;2023-04-06T12:03:24;10.20;;;8.45;;
43226;SDS011;28839;52.404;9.808;2023-04-06T12:10:20;10.57;;;8.73;;
43226;SDS011;28839;52.404;9.808;2023-04-06T12:17:14;10.27;;;8.35;;
43226;SDS011;28839;52.404;9.808;2023-04-06T12:24:08;12.17;;;8.50;;
43226;SDS011;28839;52.404;9.808;2023-04-06T12:31:03;11.53;;;9.17;;
43226;SDS011;28839;52.404;9.808;2023-04-06T12:37:57;11.45;;;9.00;;
43226;SDS011;28839;52.404;9.808;2023-04-06T12:44:51;10.90;;;8.90;;
43226;SDS011;28839;52.404;9.808;2023-04-06T12:51:46;11.75;;;9.52;;
43226;SDS011;28839;52.404;9.808;2023-04-06T12:58:40;10.38;;;8.00;;
43226;SDS011;28839;52.404;9.808;2023-04-06T13:05:34;10.60;;;8.77;;
43226;SDS011;28839;52.404;9.808;2023-04-06T13:12:30;11.52;;;8.88;;
43226;SDS011;28839;52.404;9.808;2023-04-06T13:19:24;13.43;;;8.60;;
43226;SDS011;28839;52.404;9.808;2023-04-06T13:26:18;10.95;;;7.95;;
43226;SDS011;28839;52.404;9.808;2023-04-06T13:40:08;15.07;;;9.15;;
43226;SDS011;28839;52.404;9.808;2023-04-06T13:47:03;10.38;;;8.65;;
43226;SDS011;28839;52.404;9.808;2023-04-06T13:53:59;12.35;;;9.15;;
43226;SDS011;28839;52.404;9.808;2023-04-06T14:00:52;15.20;;;9.98;;
43226;SDS011;28839;52.404;9.808;2023-04-06T14:07:46;13.05;;;9.57;;
43226;SDS011;28839;52.404;9.808;2023-04-06T14:14:41;12.32;;;8.50;;
43226;SDS011;28839;52.404;9.808;2023-04-06T14:21:35;11.05;;;9.00;;
43226;SDS011;28839;52.404;9.808;2023-04-06T14:28:29;10.00;;;7.60;;
43226;SDS011;28839;52.404;9.808;2023-04-06T14:35:25;11.00;;;8.40;;
43226;SDS011;28839;52.404;9.808;2023-04-06T14:42:20;11.05;;;8.23;;
43226;SDS011;28839;52.404;9.808;2023-04-06T14:49:13;11.55;;;8.07;;
43226;SDS011;28839;52.404;9.808;2023-04-06T14:56:09;13.25;;;8.30;;
43226;SDS011;28839;52.404;9.808;2023-04-06T15:03:03;12.73;;;7.70;;
43226;SDS011;28839;52.404;9.808;2023-04-06T15:09:56;11.50;;;8.60;;
43226;SDS011;28839;52.404;9.808;2023-04-06T15:16:52;12.73;;;8.23;;
43226;SDS011;28839;52.404;9.808;2023-04-06T15:23:45;13.07;;;8.68;;
43226;SDS011;28839;52.404;9.808;2023-04-06T15:30:39;12.52;;;7.62;;
43226;SDS011;28839;52.404;9.808;2023-04-06T15:37:34;12.37;;;8.65;;
43226;SDS011;28839;52.404;9.808;2023-04-06T15:44:29;10.77;;;7.62;;
43226;SDS011;28839;52.404;9.808;2023-04-06T15:51:23;13.48;;;7.78;;
43226;SDS011;28839;52.404;9.808;2023-04-06T15:58:18;11.67;;;8.33;;
43226;SDS011;28839;52.404;9.808;2023-04-06T16:05:12;12.35;;;8.60;;
43226;SDS011;28839;52.404;9.808;2023-04-06T16:12:06;14.65;;;8.40;;
43226;SDS011;28839;52.404;9.808;2023-04-06T16:19:02;10.75;;;8.07;;
43226;SDS011;28839;52.404;9.808;2023-04-06T16:25:55;14.13;;;9.00;;
43226;SDS011;28839;52.404;9.808;2023-04-06T16:32:49;12.03;;;8.83;;
43226;SDS011;28839;52.404;9.808;2023-04-06T16:39:45;12.02;;;8.73;;
43226;SDS011;28839;52.404;9.808;2023-04-06T16:46:38;15.48;;;9.43;;
43226;SDS011;28839;52.404;9.808;2023-04-06T16:53:32;14.55;;;8.95;;
43226;SDS011;28839;52.404;9.808;2023-04-06T17:00:28;14.10;;;9.02;;
43226;SDS011;28839;52.404;9.808;2023-04-06T17:07:21;11.82;;;8.55;;
43226;SDS011;28839;52.404;9.808;2023-04-06T17:14:17;14.68;;;9.27;;
43226;SDS011;28839;52.404;9.808;2023-04-06T17:21:12;12.48;;;8.98;;
43226;SDS011;28839;52.404;9.808;2023-04-06T17:28:07;12.82;;;9.18;;
43226;SDS011;28839;52.404;9.808;2023-04-06T17:35:01;14.52;;;10.55;;
43226;SDS011;28839;52.404;9.808;2023-04-06T17:41:57;15.55;;;10.70;;
43226;SDS011;28839;52.404;9.808;2023-04-06T17:48:50;16.27;;;11.05;;
43226;SDS011;28839;52.404;9.808;2023-04-06T17:55:44;15.00;;;10.02;;
43226;SDS011;28839;52.404;9.808;2023-04-06T18:02:40;15.13;;;10.95;;
43226;SDS011;28839;52.404;9.808;2023-04-06T18:09:34;16.42;;;10.40;;
43226;SDS011;28839;52.404;9.808;2023-04-06T18:16:28;17.05;;;9.77;;
43226;SDS011;28839;52.404;9.808;2023-04-06T18:23:23;16.45;;;10.48;;
43226;SDS011;28839;52.404;9.808;2023-04-06T18:30:17;14.38;;;9.73;;
43226;SDS011;28839;52.404;9.808;2023-04-06T18:37:11;14.10;;;11.07;;
43226;SDS011;28839;52.404;9.808;2023-04-06T18:44:06;14.55;;;10.20;;
43226;SDS011;28839;52.404;9.808;2023-04-06T18:51:00;16.70;;;9.57;;
43226;SDS011;28839;52.404;9.808;2023-04-06T18:57:55;20.70;;;10.80;;
43226;SDS011;28839;52.404;9.808;2023-04-06T19:04:50;12.97;;;8.47;;
43226;SDS011;28839;52.404;9.808;2023-04-06T19:18:38;14.90;;;9.30;;
43226;SDS011;28839;52.404;9.808;2023-04-06T19:25:35;14.52;;;9.25;;
43226;SDS011;28839;52.404;9.808;2023-04-06T19:32:29;16.33;;;9.73;;
43226;SDS011;28839;52.404;9.808;2023-04-06T19:39:22;12.65;;;9.23;;
43226;SDS011;28839;52.404;9.808;2023-04-06T19:46:18;12.85;;;9.30;;
43226;SDS011;28839;52.404;9.808;2023-04-06T19:53:13;12.70;;;9.32;;
43226;SDS011;28839;52.404;9.808;2023-04-06T20:00:07;15.45;;;9.77;;
43226;SDS011;28839;52.404;9.808;2023-04-06T20:07:03;14.87;;;10.45;;
43226;SDS011;28839;52.404;9.808;2023-04-06T20:13:57;14.25;;;10.40;;
43226;SDS011;28839;52.404;9.808;2023-04-06T20:20:51;15.07;;;9.80;;
43226;SDS011;28839;52.404;9.808;2023-04-06T20:27:47;16.07;;;11.30;;
43226;SDS011;28839;52.404;9.808;2023-04-06T20:34:43;16.30;;;11.45;;
43226;SDS011;28839;52.404;9.808;2023-04-06T20:41:37;19.17;;;11.00;;
43226;SDS011;28839;52.404;9.808;2023-04-06T20:48:32;15.23;;;11.57;;
43226;SDS011;28839;52.404;9.808;2023-04-06T20:55:29;17.02;;;11.38;;
43226;SDS011;28839;52.404;9.808;2023-04-06T21:02:23;20.55;;;13.02;;
43226;SDS011;28839;52.404;9.808;2023-04-06T21:09:18;17.50;;;11.95;;
43226;SDS011;28839;52.404;9.808;2023-04-06T21:16:12;21.75;;;12.15;;
43226;SDS011;28839;52.404;9.808;2023-04-06T21:23:06;21.92;;;12.52;;
43226;SDS011;28839;52.404;9.808;2023-04-06T21:30:02;17.13;;;11.60;;
43226;SDS011;28839;52.404;9.808;2023-04-06T21:36:56;16.48;;;11.40;;
43226;SDS011;28839;52.404;9.808;2023-04-06T21:43:50;21.73;;;12.18;;
43226;SDS011;28839;52.404;9.808;2023-04-06T21:50:45;17.70;;;11.07;;
43226;SDS011;28839;52.404;9.808;2023-04-06T21:57:39;17.15;;;12.25;;
43226;SDS011;28839;52.404;9.808;2023-04-06T22:04:33;18.50;;;12.13;;
43226;SDS011;28839;52.404;9.808;2023-04-06T22:11:28;20.70;;;12.43;;
43226;SDS011;28839;52.404;9.808;2023-04-06T22:18:22;23.00;;;12.60;;
43226;SDS011;28839;52.404;9.808;2023-04-06T22:25:16;21.73;;;13.38;;
43226;SDS011;28839;52.404;9.808;2023-04-06T22:32:11;20.83;;;12.93;;
43226;SDS011;28839;52.404;9.808;2023-04-06T22:45:59;21.45;;;12.00;;
43226;SDS011;28839;52.404;9.808;2023-04-06T22:52:54;19.35;;;13.48;;
43226;SDS011;28839;52.404;9.808;2023-04-06T23:06:41;21.05;;;13.35;;
43226;SDS011;28839;52.404;9.808;2023-04-06T23:13:37;18.33;;;12.30;;
43226;SDS011;28839;52.404;9.808;2023-04-06T23:27:24;21.45;;;12.82;;
43226;SDS011;28839;52.404;9.808;2023-04-06T23:34:19;21.27;;;12.18;;
43226;SDS011;28839;52.404;9.808;2023-04-06T23:41:13;18.35;;;11.70;;
43226;SDS011;28839;52.404;9.808;2023-04-06T23:48:07;20.15;;;11.68;;
43226;SDS011;28839;52.404;9.808;2023-04-06T23:55:02;23.92;;;13.23;;
